Pacific Hope — 3FLH6 — position and weather

sailwx.info

Track history (hours):
 
Tides and Currents Weather Stations Pressure Air Temp Water Temp Dewpoint Dewpoint Depression Visibility Wind Speed Wind Dir Waves Ship Positions

Pacific Hope

Last reported at 2014-Jul-26 04:15 UTC. Time now 2014-Jul-29 14:55 UTC.
Position N 01°10' E 103°47'.

Length 169 m; draft 10 m.

Type: Ship. MMSI: 351849000.

Date/timePositionNaut miles runAvg speedWind from/ knotsBaromVisibWave heightAir tempDewpointWater temp
2014-Jul-26 04:15N 01°10' E 103°47'7 9.7
2014-Jul-26 03:33N 01°14' E 103°53'1 1.2
2014-Jul-26 02:30N 01°15' E 103°53'0 0.0
2014-Jul-26 01:33N 01°15' E 103°53'0 0.0
2014-Jul-26 00:33N 01°15' E 103°53'0 0.0
2014-Jul-25 23:33N 01°15' E 103°53'0 0.0
2014-Jul-25 22:33N 01°15' E 103°53'0 0.0
2014-Jul-25 21:33N 01°15' E 103°53'0 0.1
2014-Jul-25 20:30N 01°15' E 103°53'0 0.1
2014-Jul-25 19:33N 01°15' E 103°53'0 0.0
2014-Jul-25 18:33N 01°15' E 103°53'0 0.1
2014-Jul-25 17:30N 01°15' E 103°54'1 1.2
2014-Jul-25 16:33N 01°14' E 103°53'8 7.6
2014-Jul-25 15:33N 01°16' E 104°01'10 8.9
2014-Jul-25 14:27N 01°17' E 104°10'  
2014-Jul-17 18:29N 30°49' E 123°20'1210.8
2014-Jul-17 17:24N 30°56' E 123°09'32 9.6
2014-Jul-17 14:05N 31°05' E 122°33'3311.8
2014-Jul-17 11:18N 31°15' E 121°57'1114.1
2014-Jul-17 10:33N 31°19' E 121°45'1010.5
2014-Jul-17 09:33N 31°24' E 121°34'1010.1
2014-Jul-17 08:33N 31°29' E 121°24'1 1.0
2014-Jul-17 07:04N 31°30' E 121°23'0 0.0
2014-Jul-17 06:22N 31°30' E 121°23'0 0.0
2014-Jul-17 05:10N 31°30' E 121°23'0 0.0
2014-Jul-17 04:16N 31°30' E 121°23'0 0.0
2014-Jul-17 03:28N 31°30' E 121°23'0 0.0
2014-Jul-17 02:22N 31°30' E 121°23'0 0.0
2014-Jul-17 01:28N 31°30' E 121°23'0 0.0
2014-Jul-17 00:22N 31°30' E 121°23'0 0.0
2014-Jul-16 23:28N 31°30' E 121°23'0 0.0
2014-Jul-16 21:04N 31°30' E 121°23'0 0.0
2014-Jul-16 20:22N 31°30' E 121°23'0 0.0
2014-Jul-16 19:04N 31°30' E 121°23'0 0.0
2014-Jul-16 18:28N 31°30' E 121°23'0 0.0
2014-Jul-16 17:10N 31°30' E 121°23'0 0.0
2014-Jul-16 16:16N 31°30' E 121°23'0 0.0
2014-Jul-16 15:28N 31°30' E 121°23'0 0.0
2014-Jul-16 14:28N 31°30' E 121°23'0 0.0
2014-Jul-16 13:16N 31°30' E 121°23'0 0.0
2014-Jul-16 12:16N 31°30' E 121°23'0 0.0
2014-Jul-16 11:22N 31°30' E 121°23'0 0.0
2014-Jul-16 10:28N 31°30' E 121°23'0 0.0
2014-Jul-16 09:28N 31°30' E 121°23'0 0.0
2014-Jul-16 08:22N 31°30' E 121°23'0 0.0
2014-Jul-16 07:10N 31°30' E 121°23'0 0.0
2014-Jul-16 06:28N 31°30' E 121°23'0 0.0
2014-Jul-16 05:22N 31°30' E 121°23'0 0.0
2014-Jul-16 04:16N 31°30' E 121°23'  
Track history (hours):
 
Tides and Currents Weather Stations Pressure Air Temp Water Temp Dewpoint Dewpoint Depression Visibility Wind Speed Wind Dir Waves Ship Positions

Pacific Hope

Last reported at 2014-Jul-26 04:15 UTC. Time now 2014-Jul-29 14:55 UTC.
Position N 01°10' E 103°47'.

Length 169 m; draft 10 m.

Type: Ship. MMSI: 351849000.

Date/timePositionNaut miles runAvg speedWind from/ knotsBaromVisibWave heightAir tempDewpointWater temp
2014-Jul-26 04:15N 01°10' E 103°47'7 9.7
2014-Jul-26 03:33N 01°14' E 103°53'1 1.2
2014-Jul-26 02:30N 01°15' E 103°53'0 0.0
2014-Jul-26 01:33N 01°15' E 103°53'0 0.0
2014-Jul-26 00:33N 01°15' E 103°53'0 0.0
2014-Jul-25 23:33N 01°15' E 103°53'0 0.0
2014-Jul-25 22:33N 01°15' E 103°53'0 0.0
2014-Jul-25 21:33N 01°15' E 103°53'0 0.1
2014-Jul-25 20:30N 01°15' E 103°53'0 0.1
2014-Jul-25 19:33N 01°15' E 103°53'0 0.0
2014-Jul-25 18:33N 01°15' E 103°53'0 0.1
2014-Jul-25 17:30N 01°15' E 103°54'1 1.2
2014-Jul-25 16:33N 01°14' E 103°53'8 7.6
2014-Jul-25 15:33N 01°16' E 104°01'10 8.9
2014-Jul-25 14:27N 01°17' E 104°10'  
2014-Jul-17 18:29N 30°49' E 123°20'1210.8
2014-Jul-17 17:24N 30°56' E 123°09'32 9.6
2014-Jul-17 14:05N 31°05' E 122°33'3311.8
2014-Jul-17 11:18N 31°15' E 121°57'1114.1
2014-Jul-17 10:33N 31°19' E 121°45'1010.5
2014-Jul-17 09:33N 31°24' E 121°34'1010.1
2014-Jul-17 08:33N 31°29' E 121°24'1 1.0
2014-Jul-17 07:04N 31°30' E 121°23'0 0.0
2014-Jul-17 06:22N 31°30' E 121°23'0 0.0
2014-Jul-17 05:10N 31°30' E 121°23'0 0.0
2014-Jul-17 04:16N 31°30' E 121°23'0 0.0
2014-Jul-17 03:28N 31°30' E 121°23'0 0.0
2014-Jul-17 02:22N 31°30' E 121°23'0 0.0
2014-Jul-17 01:28N 31°30' E 121°23'0 0.0
2014-Jul-17 00:22N 31°30' E 121°23'0 0.0
2014-Jul-16 23:28N 31°30' E 121°23'0 0.0
2014-Jul-16 21:04N 31°30' E 121°23'0 0.0
2014-Jul-16 20:22N 31°30' E 121°23'0 0.0
2014-Jul-16 19:04N 31°30' E 121°23'0 0.0
2014-Jul-16 18:28N 31°30' E 121°23'0 0.0
2014-Jul-16 17:10N 31°30' E 121°23'0 0.0
2014-Jul-16 16:16N 31°30' E 121°23'0 0.0
2014-Jul-16 15:28N 31°30' E 121°23'0 0.0
2014-Jul-16 14:28N 31°30' E 121°23'0 0.0
2014-Jul-16 13:16N 31°30' E 121°23'0 0.0
2014-Jul-16 12:16N 31°30' E 121°23'0 0.0
2014-Jul-16 11:22N 31°30' E 121°23'0 0.0
2014-Jul-16 10:28N 31°30' E 121°23'0 0.0
2014-Jul-16 09:28N 31°30' E 121°23'0 0.0
2014-Jul-16 08:22N 31°30' E 121°23'0 0.0
2014-Jul-16 07:10N 31°30' E 121°23'0 0.0
2014-Jul-16 06:28N 31°30' E 121°23'0 0.0
2014-Jul-16 05:22N 31°30' E 121°23'0 0.0
2014-Jul-16 04:16N 31°30' E 121°23'  

Dump ship's entire track history